sensor_id;sensor_type;location;lat;lon;timestamp;temperature;humidity
41922;DHT22;27609;51.002;5.354;2023-11-21T00:02:15;8.80;99.90
41922;DHT22;27609;51.002;5.354;2023-11-21T00:04:40;8.70;99.90
41922;DHT22;27609;51.002;5.354;2023-11-21T00:07:06;8.70;99.90
41922;DHT22;27609;51.002;5.354;2023-11-21T00:09:32;8.70;99.90
41922;DHT22;27609;51.002;5.354;2023-11-21T00:11:58;8.90;99.90
41922;DHT22;27609;51.002;5.354;2023-11-21T00:14:25;8.90;99.90
41922;DHT22;27609;51.002;5.354;2023-11-21T00:16:50;9.00;99.90
41922;DHT22;27609;51.002;5.354;2023-11-21T00:19:16;9.10;99.90
41922;DHT22;27609;51.002;5.354;2023-11-21T00:21:42;9.10;99.90
41922;DHT22;27609;51.002;5.354;2023-11-21T00:24:12;9.10;99.90
41922;DHT22;27609;51.002;5.354;2023-11-21T00:26:39;9.10;99.90
41922;DHT22;27609;51.002;5.354;2023-11-21T00:29:05;9.00;99.90
41922;DHT22;27609;51.002;5.354;2023-11-21T00:31:34;9.00;99.90
41922;DHT22;27609;51.002;5.354;2023-11-21T00:34:02;9.00;99.90
41922;DHT22;27609;51.002;5.354;2023-11-21T00:36:31;9.00;99.90
41922;DHT22;27609;51.002;5.354;2023-11-21T00:38:57;9.00;99.90
41922;DHT22;27609;51.002;5.354;2023-11-21T00:41:23;9.00;99.90
41922;DHT22;27609;51.002;5.354;2023-11-21T00:43:48;8.90;99.90
41922;DHT22;27609;51.002;5.354;2023-11-21T00:46:14;8.70;99.90
41922;DHT22;27609;51.002;5.354;2023-11-21T00:48:40;8.60;99.90
41922;DHT22;27609;51.002;5.354;2023-11-21T00:51:06;8.70;99.90
41922;DHT22;27609;51.002;5.354;2023-11-21T00:53:32;8.60;99.90
41922;DHT22;27609;51.002;5.354;2023-11-21T00:55:58;8.60;99.90
41922;DHT22;27609;51.002;5.354;2023-11-21T00:58:24;8.60;99.90
41922;DHT22;27609;51.002;5.354;2023-11-21T01:00:50;8.60;99.90
41922;DHT22;27609;51.002;5.354;2023-11-21T01:03:16;8.60;99.90
41922;DHT22;27609;51.002;5.354;2023-11-21T01:05:42;8.60;99.90
41922;DHT22;27609;51.002;5.354;2023-11-21T01:08:07;8.70;99.90
41922;DHT22;27609;51.002;5.354;2023-11-21T01:10:33;8.70;99.90
41922;DHT22;27609;51.002;5.354;2023-11-21T01:13:02;8.80;99.90
41922;DHT22;27609;51.002;5.354;2023-11-21T01:15:31;8.70;99.90
41922;DHT22;27609;51.002;5.354;2023-11-21T01:17:57;8.70;99.90
41922;DHT22;27609;51.002;5.354;2023-11-21T01:20:22;8.70;99.90
41922;DHT22;27609;51.002;5.354;2023-11-21T01:22:48;8.70;99.90
41922;DHT22;27609;51.002;5.354;2023-11-21T01:25:16;8.60;99.90
41922;DHT22;27609;51.002;5.354;2023-11-21T01:27:43;8.60;99.90
41922;DHT22;27609;51.002;5.354;2023-11-21T01:30:09;8.70;99.90
41922;DHT22;27609;51.002;5.354;2023-11-21T01:32:38;8.70;99.90
41922;DHT22;27609;51.002;5.354;2023-11-21T01:35:05;8.70;99.90
41922;DHT22;27609;51.002;5.354;2023-11-21T01:37:32;8.80;99.90
41922;DHT22;27609;51.002;5.354;2023-11-21T01:39:58;8.90;99.90
41922;DHT22;27609;51.002;5.354;2023-11-21T01:42:25;8.80;99.90
41922;DHT22;27609;51.002;5.354;2023-11-21T01:44:50;8.90;99.90
41922;DHT22;27609;51.002;5.354;2023-11-21T01:47:16;9.00;99.90
41922;DHT22;27609;51.002;5.354;2023-11-21T01:49:45;9.20;99.90
41922;DHT22;27609;51.002;5.354;2023-11-21T01:52:12;9.30;99.90
41922;DHT22;27609;51.002;5.354;2023-11-21T01:54:38;9.30;99.90
41922;DHT22;27609;51.002;5.354;2023-11-21T01:57:05;9.30;99.90
41922;DHT22;27609;51.002;5.354;2023-11-21T01:59:38;9.40;99.90
41922;DHT22;27609;51.002;5.354;2023-11-21T02:02:07;9.40;99.90
41922;DHT22;27609;51.002;5.354;2023-11-21T02:04:34;9.50;99.90
41922;DHT22;27609;51.002;5.354;2023-11-21T02:07:00;9.50;99.90
41922;DHT22;27609;51.002;5.354;2023-11-21T02:09:27;9.50;99.90
41922;DHT22;27609;51.002;5.354;2023-11-21T02:11:53;9.50;99.90
41922;DHT22;27609;51.002;5.354;2023-11-21T02:14:20;9.40;99.90
41922;DHT22;27609;51.002;5.354;2023-11-21T02:16:51;9.30;99.90
41922;DHT22;27609;51.002;5.354;2023-11-21T02:19:21;9.30;99.90
41922;DHT22;27609;51.002;5.354;2023-11-21T02:21:54;9.30;99.90
41922;DHT22;27609;51.002;5.354;2023-11-21T02:24:21;9.30;99.90
41922;DHT22;27609;51.002;5.354;2023-11-21T02:26:47;9.20;99.90
41922;DHT22;27609;51.002;5.354;2023-11-21T02:29:13;9.20;99.90
41922;DHT22;27609;51.002;5.354;2023-11-21T02:31:39;9.10;99.90
41922;DHT22;27609;51.002;5.354;2023-11-21T02:34:17;9.10;99.90
41922;DHT22;27609;51.002;5.354;2023-11-21T02:36:44;9.20;99.90
41922;DHT22;27609;51.002;5.354;2023-11-21T02:39:11;9.30;99.90
41922;DHT22;27609;51.002;5.354;2023-11-21T02:41:37;9.30;99.90
41922;DHT22;27609;51.002;5.354;2023-11-21T02:44:05;9.40;99.90
41922;DHT22;27609;51.002;5.354;2023-11-21T02:46:34;9.50;99.90
41922;DHT22;27609;51.002;5.354;2023-11-21T02:49:01;9.50;99.90
41922;DHT22;27609;51.002;5.354;2023-11-21T02:51:27;9.50;99.90
41922;DHT22;27609;51.002;5.354;2023-11-21T02:53:52;9.60;99.90
41922;DHT22;27609;51.002;5.354;2023-11-21T02:56:18;9.50;99.90
41922;DHT22;27609;51.002;5.354;2023-11-21T02:58:45;9.60;99.90
41922;DHT22;27609;51.002;5.354;2023-11-21T03:01:11;9.60;99.90
41922;DHT22;27609;51.002;5.354;2023-11-21T03:03:37;9.60;99.90
41922;DHT22;27609;51.002;5.354;2023-11-21T03:06:05;9.60;99.90
41922;DHT22;27609;51.002;5.354;2023-11-21T03:08:31;9.60;99.90
41922;DHT22;27609;51.002;5.354;2023-11-21T03:10:58;9.50;99.90
41922;DHT22;27609;51.002;5.354;2023-11-21T03:13:23;9.40;99.90
41922;DHT22;27609;51.002;5.354;2023-11-21T03:15:49;9.50;99.90
41922;DHT22;27609;51.002;5.354;2023-11-21T03:18:15;9.50;99.90
41922;DHT22;27609;51.002;5.354;2023-11-21T03:20:41;9.50;99.90
41922;DHT22;27609;51.002;5.354;2023-11-21T03:23:07;9.40;99.90
41922;DHT22;27609;51.002;5.354;2023-11-21T03:25:32;9.30;99.90
41922;DHT22;27609;51.002;5.354;2023-11-21T03:27:58;9.30;99.90
41922;DHT22;27609;51.002;5.354;2023-11-21T03:30:24;9.30;99.90
41922;DHT22;27609;51.002;5.354;2023-11-21T03:32:49;9.20;99.90
41922;DHT22;27609;51.002;5.354;2023-11-21T03:35:15;9.20;99.90
41922;DHT22;27609;51.002;5.354;2023-11-21T03:37:41;9.40;99.90
41922;DHT22;27609;51.002;5.354;2023-11-21T03:40:08;9.50;99.90
41922;DHT22;27609;51.002;5.354;2023-11-21T03:42:34;9.30;99.90
41922;DHT22;27609;51.002;5.354;2023-11-21T03:45:00;9.40;99.90
41922;DHT22;27609;51.002;5.354;2023-11-21T03:47:27;9.60;99.90
41922;DHT22;27609;51.002;5.354;2023-11-21T03:49:53;9.80;99.90
41922;DHT22;27609;51.002;5.354;2023-11-21T03:52:19;9.90;99.90
41922;DHT22;27609;51.002;5.354;2023-11-21T03:54:44;9.80;99.90
41922;DHT22;27609;51.002;5.354;2023-11-21T03:57:11;9.70;99.90
41922;DHT22;27609;51.002;5.354;2023-11-21T03:59:40;9.70;99.90
41922;DHT22;27609;51.002;5.354;2023-11-21T04:02:05;9.70;99.90
41922;DHT22;27609;51.002;5.354;2023-11-21T04:04:32;9.60;99.90
41922;DHT22;27609;51.002;5.354;2023-11-21T04:06:57;9.40;99.90
41922;DHT22;27609;51.002;5.354;2023-11-21T04:09:23;9.30;99.90
41922;DHT22;27609;51.002;5.354;2023-11-21T04:11:51;9.30;99.90
41922;DHT22;27609;51.002;5.354;2023-11-21T04:14:16;9.30;99.90
41922;DHT22;27609;51.002;5.354;2023-11-21T04:16:42;9.40;99.90
41922;DHT22;27609;51.002;5.354;2023-11-21T04:19:08;9.40;99.90
41922;DHT22;27609;51.002;5.354;2023-11-21T04:21:39;9.30;99.90
41922;DHT22;27609;51.002;5.354;2023-11-21T04:24:05;9.30;99.90
41922;DHT22;27609;51.002;5.354;2023-11-21T04:26:31;9.30;99.90
41922;DHT22;27609;51.002;5.354;2023-11-21T04:28:57;9.40;99.90
41922;DHT22;27609;51.002;5.354;2023-11-21T04:31:22;9.50;99.90
41922;DHT22;27609;51.002;5.354;2023-11-21T04:33:48;9.40;99.90
41922;DHT22;27609;51.002;5.354;2023-11-21T04:36:14;9.40;99.90
41922;DHT22;27609;51.002;5.354;2023-11-21T04:38:40;9.40;99.90
41922;DHT22;27609;51.002;5.354;2023-11-21T04:41:06;9.40;99.90
41922;DHT22;27609;51.002;5.354;2023-11-21T04:43:32;9.40;99.90
41922;DHT22;27609;51.002;5.354;2023-11-21T04:45:57;9.30;99.90
41922;DHT22;27609;51.002;5.354;2023-11-21T04:48:23;9.40;99.90
41922;DHT22;27609;51.002;5.354;2023-11-21T04:50:49;9.60;99.90
41922;DHT22;27609;51.002;5.354;2023-11-21T04:53:14;9.70;99.90
41922;DHT22;27609;51.002;5.354;2023-11-21T04:55:43;9.60;99.90
41922;DHT22;27609;51.002;5.354;2023-11-21T04:58:09;9.40;99.90
41922;DHT22;27609;51.002;5.354;2023-11-21T05:00:36;9.30;99.90
41922;DHT22;27609;51.002;5.354;2023-11-21T05:03:02;9.40;99.90
41922;DHT22;27609;51.002;5.354;2023-11-21T05:05:29;9.60;99.90
41922;DHT22;27609;51.002;5.354;2023-11-21T05:07:57;9.70;99.90
41922;DHT22;27609;51.002;5.354;2023-11-21T05:10:23;9.80;99.90
41922;DHT22;27609;51.002;5.354;2023-11-21T05:12:49;9.80;99.90
41922;DHT22;27609;51.002;5.354;2023-11-21T05:15:16;9.90;99.90
41922;DHT22;27609;51.002;5.354;2023-11-21T05:17:43;9.90;99.90
41922;DHT22;27609;51.002;5.354;2023-11-21T05:20:13;10.00;99.90
41922;DHT22;27609;51.002;5.354;2023-11-21T05:22:43;10.00;99.90
41922;DHT22;27609;51.002;5.354;2023-11-21T05:25:09;10.00;99.90
41922;DHT22;27609;51.002;5.354;2023-11-21T05:27:35;10.00;99.90
41922;DHT22;27609;51.002;5.354;2023-11-21T05:30:04;10.00;99.90
41922;DHT22;27609;51.002;5.354;2023-11-21T05:32:31;9.90;99.90
41922;DHT22;27609;51.002;5.354;2023-11-21T05:34:57;9.90;99.90
41922;DHT22;27609;51.002;5.354;2023-11-21T05:37:22;9.90;99.90
41922;DHT22;27609;51.002;5.354;2023-11-21T05:39:49;9.80;99.90
41922;DHT22;27609;51.002;5.354;2023-11-21T05:42:14;9.80;99.90
41922;DHT22;27609;51.002;5.354;2023-11-21T05:44:43;10.00;99.90
41922;DHT22;27609;51.002;5.354;2023-11-21T05:47:09;9.90;99.90
41922;DHT22;27609;51.002;5.354;2023-11-21T05:49:36;9.80;99.90
41922;DHT22;27609;51.002;5.354;2023-11-21T05:52:02;9.90;99.90
41922;DHT22;27609;51.002;5.354;2023-11-21T05:54:28;9.80;99.90
41922;DHT22;27609;51.002;5.354;2023-11-21T05:56:54;9.80;99.90
41922;DHT22;27609;51.002;5.354;2023-11-21T05:59:19;9.80;99.90
41922;DHT22;27609;51.002;5.354;2023-11-21T06:01:46;9.70;99.90
41922;DHT22;27609;51.002;5.354;2023-11-21T06:04:11;9.70;99.90
41922;DHT22;27609;51.002;5.354;2023-11-21T06:06:38;9.60;99.90
41922;DHT22;27609;51.002;5.354;2023-11-21T06:09:04;9.60;99.90
41922;DHT22;27609;51.002;5.354;2023-11-21T06:11:33;9.60;99.90
41922;DHT22;27609;51.002;5.354;2023-11-21T06:13:59;9.60;99.90
41922;DHT22;27609;51.002;5.354;2023-11-21T06:16:25;9.50;99.90
41922;DHT22;27609;51.002;5.354;2023-11-21T06:18:51;9.40;99.90
41922;DHT22;27609;51.002;5.354;2023-11-21T06:21:16;9.40;99.90
41922;DHT22;27609;51.002;5.354;2023-11-21T06:23:43;9.20;99.90
41922;DHT22;27609;51.002;5.354;2023-11-21T06:26:09;9.30;99.90
41922;DHT22;27609;51.002;5.354;2023-11-21T06:28:35;9.40;99.90
41922;DHT22;27609;51.002;5.354;2023-11-21T06:31:01;9.40;99.90
41922;DHT22;27609;51.002;5.354;2023-11-21T06:33:34;9.40;99.90
41922;DHT22;27609;51.002;5.354;2023-11-21T06:36:00;9.30;99.90
41922;DHT22;27609;51.002;5.354;2023-11-21T06:38:28;9.30;99.90
41922;DHT22;27609;51.002;5.354;2023-11-21T06:40:58;9.30;99.90
41922;DHT22;27609;51.002;5.354;2023-11-21T06:43:27;9.30;99.90
41922;DHT22;27609;51.002;5.354;2023-11-21T06:45:52;9.30;99.90
41922;DHT22;27609;51.002;5.354;2023-11-21T06:48:18;9.30;99.90
41922;DHT22;27609;51.002;5.354;2023-11-21T06:50:44;9.40;99.90
41922;DHT22;27609;51.002;5.354;2023-11-21T06:53:09;9.40;99.90
41922;DHT22;27609;51.002;5.354;2023-11-21T06:55:35;9.40;99.90
41922;DHT22;27609;51.002;5.354;2023-11-21T06:58:01;9.40;99.90
41922;DHT22;27609;51.002;5.354;2023-11-21T07:00:26;9.40;99.90
41922;DHT22;27609;51.002;5.354;2023-11-21T07:02:55;9.40;99.90
41922;DHT22;27609;51.002;5.354;2023-11-21T07:05:22;9.30;99.90
41922;DHT22;27609;51.002;5.354;2023-11-21T07:07:48;9.30;99.90
41922;DHT22;27609;51.002;5.354;2023-11-21T07:10:15;9.30;99.90
41922;DHT22;27609;51.002;5.354;2023-11-21T07:12:40;9.20;99.90
41922;DHT22;27609;51.002;5.354;2023-11-21T07:15:07;9.20;99.90
41922;DHT22;27609;51.002;5.354;2023-11-21T07:17:37;9.20;99.90
41922;DHT22;27609;51.002;5.354;2023-11-21T07:20:04;9.30;99.90
41922;DHT22;27609;51.002;5.354;2023-11-21T07:22:29;9.40;99.90
41922;DHT22;27609;51.002;5.354;2023-11-21T07:24:55;9.40;99.90
41922;DHT22;27609;51.002;5.354;2023-11-21T07:27:24;9.30;99.90
41922;DHT22;27609;51.002;5.354;2023-11-21T07:29:50;9.20;99.90
41922;DHT22;27609;51.002;5.354;2023-11-21T07:32:15;9.30;99.90
41922;DHT22;27609;51.002;5.354;2023-11-21T07:34:41;9.30;99.90
41922;DHT22;27609;51.002;5.354;2023-11-21T07:37:08;9.40;99.90
41922;DHT22;27609;51.002;5.354;2023-11-21T07:39:35;9.60;99.90
41922;DHT22;27609;51.002;5.354;2023-11-21T07:42:02;9.40;99.90
41922;DHT22;27609;51.002;5.354;2023-11-21T07:44:28;9.50;99.90
41922;DHT22;27609;51.002;5.354;2023-11-21T07:46:54;9.60;99.90
41922;DHT22;27609;51.002;5.354;2023-11-21T07:49:23;9.50;99.90
41922;DHT22;27609;51.002;5.354;2023-11-21T07:51:49;9.60;99.90
41922;DHT22;27609;51.002;5.354;2023-11-21T07:54:15;9.60;99.90
41922;DHT22;27609;51.002;5.354;2023-11-21T07:56:41;9.80;99.90
41922;DHT22;27609;51.002;5.354;2023-11-21T07:59:07;9.90;99.90
41922;DHT22;27609;51.002;5.354;2023-11-21T08:01:33;9.80;99.90
41922;DHT22;27609;51.002;5.354;2023-11-21T08:03:59;9.70;99.90
41922;DHT22;27609;51.002;5.354;2023-11-21T08:06:31;9.80;99.90
41922;DHT22;27609;51.002;5.354;2023-11-21T08:08:58;9.70;99.90
41922;DHT22;27609;51.002;5.354;2023-11-21T08:11:24;9.50;99.90
41922;DHT22;27609;51.002;5.354;2023-11-21T08:13:49;9.60;99.90
41922;DHT22;27609;51.002;5.354;2023-11-21T08:16:15;9.40;99.90
41922;DHT22;27609;51.002;5.354;2023-11-21T08:18:42;9.50;99.90
41922;DHT22;27609;51.002;5.354;2023-11-21T08:21:08;9.50;99.90
41922;DHT22;27609;51.002;5.354;2023-11-21T08:23:34;9.40;99.90
41922;DHT22;27609;51.002;5.354;2023-11-21T08:26:00;9.50;99.90
41922;DHT22;27609;51.002;5.354;2023-11-21T08:28:25;9.60;99.90
41922;DHT22;27609;51.002;5.354;2023-11-21T08:30:54;9.70;99.90
41922;DHT22;27609;51.002;5.354;2023-11-21T08:33:20;9.60;99.90
41922;DHT22;27609;51.002;5.354;2023-11-21T08:35:45;9.60;99.90
41922;DHT22;27609;51.002;5.354;2023-11-21T08:38:12;9.60;99.90
41922;DHT22;27609;51.002;5.354;2023-11-21T08:40:38;9.60;99.90
41922;DHT22;27609;51.002;5.354;2023-11-21T08:43:03;9.60;99.90
41922;DHT22;27609;51.002;5.354;2023-11-21T08:45:32;9.60;99.90
41922;DHT22;27609;51.002;5.354;2023-11-21T08:48:00;9.60;99.90
41922;DHT22;27609;51.002;5.354;2023-11-21T08:50:26;9.70;99.90
41922;DHT22;27609;51.002;5.354;2023-11-21T08:52:51;9.90;99.90
41922;DHT22;27609;51.002;5.354;2023-11-21T08:55:17;10.00;99.90
41922;DHT22;27609;51.002;5.354;2023-11-21T08:57:45;10.00;99.90
41922;DHT22;27609;51.002;5.354;2023-11-21T09:00:12;9.90;99.90
41922;DHT22;27609;51.002;5.354;2023-11-21T09:02:41;10.00;99.90
41922;DHT22;27609;51.002;5.354;2023-11-21T09:05:11;10.00;99.90
41922;DHT22;27609;51.002;5.354;2023-11-21T09:07:38;10.20;99.90
41922;DHT22;27609;51.002;5.354;2023-11-21T09:10:04;10.20;99.90
41922;DHT22;27609;51.002;5.354;2023-11-21T09:12:33;10.40;99.90
41922;DHT22;27609;51.002;5.354;2023-11-21T09:15:05;10.30;99.90
41922;DHT22;27609;51.002;5.354;2023-11-21T09:17:32;10.10;99.90
41922;DHT22;27609;51.002;5.354;2023-11-21T09:19:58;10.10;99.90
41922;DHT22;27609;51.002;5.354;2023-11-21T09:22:23;10.30;99.90
41922;DHT22;27609;51.002;5.354;2023-11-21T09:24:52;10.40;99.90
41922;DHT22;27609;51.002;5.354;2023-11-21T09:27:19;10.40;99.90
41922;DHT22;27609;51.002;5.354;2023-11-21T09:29:45;10.30;99.90
41922;DHT22;27609;51.002;5.354;2023-11-21T09:32:11;10.30;99.90
41922;DHT22;27609;51.002;5.354;2023-11-21T09:34:39;10.60;99.90
41922;DHT22;27609;51.002;5.354;2023-11-21T09:37:05;10.80;99.90
41922;DHT22;27609;51.002;5.354;2023-11-21T09:39:32;10.90;99.90
41922;DHT22;27609;51.002;5.354;2023-11-21T09:42:10;10.80;99.90
41922;DHT22;27609;51.002;5.354;2023-11-21T09:47:06;10.70;99.90
41922;DHT22;27609;51.002;5.354;2023-11-21T09:49:37;10.70;99.90
41922;DHT22;27609;51.002;5.354;2023-11-21T09:52:04;10.70;99.90
41922;DHT22;27609;51.002;5.354;2023-11-21T09:54:32;10.80;99.90
41922;DHT22;27609;51.002;5.354;2023-11-21T09:56:59;10.80;99.90
41922;DHT22;27609;51.002;5.354;2023-11-21T09:59:30;10.80;99.90
41922;DHT22;27609;51.002;5.354;2023-11-21T10:01:58;10.70;99.90
41922;DHT22;27609;51.002;5.354;2023-11-21T10:04:24;10.60;99.90
41922;DHT22;27609;51.002;5.354;2023-11-21T10:06:50;10.70;99.90
41922;DHT22;27609;51.002;5.354;2023-11-21T10:09:17;10.80;99.90
41922;DHT22;27609;51.002;5.354;2023-11-21T10:11:43;10.70;99.90
41922;DHT22;27609;51.002;5.354;2023-11-21T10:14:12;10.70;99.90
41922;DHT22;27609;51.002;5.354;2023-11-21T10:16:40;10.50;99.90
41922;DHT22;27609;51.002;5.354;2023-11-21T10:19:06;10.50;99.90
41922;DHT22;27609;51.002;5.354;2023-11-21T10:21:35;10.60;99.90
41922;DHT22;27609;51.002;5.354;2023-11-21T10:24:01;10.90;99.90
41922;DHT22;27609;51.002;5.354;2023-11-21T10:26:28;11.10;99.90
41922;DHT22;27609;51.002;5.354;2023-11-21T10:29:01;10.90;99.90
41922;DHT22;27609;51.002;5.354;2023-11-21T10:31:30;11.00;99.90
41922;DHT22;27609;51.002;5.354;2023-11-21T10:34:20;11.00;99.90
41922;DHT22;27609;51.002;5.354;2023-11-21T10:36:46;10.90;99.90
41922;DHT22;27609;51.002;5.354;2023-11-21T10:39:19;10.90;99.90
41922;DHT22;27609;51.002;5.354;2023-11-21T10:41:49;11.10;99.90
41922;DHT22;27609;51.002;5.354;2023-11-21T10:44:18;11.30;99.90
41922;DHT22;27609;51.002;5.354;2023-11-21T10:46:51;11.30;99.90
41922;DHT22;27609;51.002;5.354;2023-11-21T10:49:18;11.30;99.90
41922;DHT22;27609;51.002;5.354;2023-11-21T10:51:44;11.20;99.90
41922;DHT22;27609;51.002;5.354;2023-11-21T10:54:10;11.10;99.90
41922;DHT22;27609;51.002;5.354;2023-11-21T10:56:38;11.10;99.90
41922;DHT22;27609;51.002;5.354;2023-11-21T10:59:10;11.10;99.90
41922;DHT22;27609;51.002;5.354;2023-11-21T11:01:42;11.10;99.90
41922;DHT22;27609;51.002;5.354;2023-11-21T11:04:09;11.20;99.90
41922;DHT22;27609;51.002;5.354;2023-11-21T11:06:41;11.30;99.90
41922;DHT22;27609;51.002;5.354;2023-11-21T11:09:12;11.30;99.90
41922;DHT22;27609;51.002;5.354;2023-11-21T11:11:41;11.30;99.90
41922;DHT22;27609;51.002;5.354;2023-11-21T11:14:12;11.20;99.90
41922;DHT22;27609;51.002;5.354;2023-11-21T11:16:39;11.20;99.90
41922;DHT22;27609;51.002;5.354;2023-11-21T11:19:09;11.10;99.90
41922;DHT22;27609;51.002;5.354;2023-11-21T11:27:48;11.20;99.90
41922;DHT22;27609;51.002;5.354;2023-11-21T11:30:24;11.20;99.90
41922;DHT22;27609;51.002;5.354;2023-11-21T11:33:18;11.40;99.90
41922;DHT22;27609;51.002;5.354;2023-11-21T11:36:00;11.70;99.90
41922;DHT22;27609;51.002;5.354;2023-11-21T11:38:32;11.90;99.90
41922;DHT22;27609;51.002;5.354;2023-11-21T11:41:05;12.10;99.90
41922;DHT22;27609;51.002;5.354;2023-11-21T11:43:32;12.10;99.90
41922;DHT22;27609;51.002;5.354;2023-11-21T11:46:03;11.90;99.90
41922;DHT22;27609;51.002;5.354;2023-11-21T11:48:29;12.10;99.90
41922;DHT22;27609;51.002;5.354;2023-11-21T11:51:05;12.30;99.90
41922;DHT22;27609;51.002;5.354;2023-11-21T11:53:36;12.40;99.90
41922;DHT22;27609;51.002;5.354;2023-11-21T11:58:58;12.40;99.90
41922;DHT22;27609;51.002;5.354;2023-11-21T12:01:25;12.40;99.90
41922;DHT22;27609;51.002;5.354;2023-11-21T12:06:46;12.50;99.90
41922;DHT22;27609;51.002;5.354;2023-11-21T12:09:19;12.60;99.90
41922;DHT22;27609;51.002;5.354;2023-11-21T12:11:47;12.80;99.90
41922;DHT22;27609;51.002;5.354;2023-11-21T12:14:17;12.80;99.90
41922;DHT22;27609;51.002;5.354;2023-11-21T12:16:43;12.90;99.90
41922;DHT22;27609;51.002;5.354;2023-11-21T12:19:10;12.90;99.90
41922;DHT22;27609;51.002;5.354;2023-11-21T12:21:36;13.00;99.90
41922;DHT22;27609;51.002;5.354;2023-11-21T12:24:02;13.00;99.90
41922;DHT22;27609;51.002;5.354;2023-11-21T12:26:28;13.10;99.90
41922;DHT22;27609;51.002;5.354;2023-11-21T12:28:54;13.20;99.90
41922;DHT22;27609;51.002;5.354;2023-11-21T12:31:21;13.10;99.90
41922;DHT22;27609;51.002;5.354;2023-11-21T12:33:47;13.10;99.90
41922;DHT22;27609;51.002;5.354;2023-11-21T12:36:13;12.80;99.90
41922;DHT22;27609;51.002;5.354;2023-11-21T12:38:39;12.70;99.90
41922;DHT22;27609;51.002;5.354;2023-11-21T12:41:05;12.60;99.90
41922;DHT22;27609;51.002;5.354;2023-11-21T12:43:32;12.60;99.90
41922;DHT22;27609;51.002;5.354;2023-11-21T12:46:08;12.40;99.90
41922;DHT22;27609;51.002;5.354;2023-11-21T12:48:41;12.40;99.90
41922;DHT22;27609;51.002;5.354;2023-11-21T12:51:11;12.40;99.90
41922;DHT22;27609;51.002;5.354;2023-11-21T12:53:41;12.60;99.90
41922;DHT22;27609;51.002;5.354;2023-11-21T12:56:09;12.80;99.90
41922;DHT22;27609;51.002;5.354;2023-11-21T12:58:39;12.90;99.90
41922;DHT22;27609;51.002;5.354;2023-11-21T13:01:08;13.40;99.90
41922;DHT22;27609;51.002;5.354;2023-11-21T13:03:38;13.40;99.90
41922;DHT22;27609;51.002;5.354;2023-11-21T13:06:05;13.30;99.90
41922;DHT22;27609;51.002;5.354;2023-11-21T13:08:30;13.30;99.90
41922;DHT22;27609;51.002;5.354;2023-11-21T13:10:59;13.30;99.90
41922;DHT22;27609;51.002;5.354;2023-11-21T13:13:27;13.20;99.90
41922;DHT22;27609;51.002;5.354;2023-11-21T13:15:59;13.00;99.90
41922;DHT22;27609;51.002;5.354;2023-11-21T13:18:31;13.10;99.90
41922;DHT22;27609;51.002;5.354;2023-11-21T13:20:59;13.10;99.90
41922;DHT22;27609;51.002;5.354;2023-11-21T13:23:26;13.40;99.90
41922;DHT22;27609;51.002;5.354;2023-11-21T13:25:53;13.80;99.90
41922;DHT22;27609;51.002;5.354;2023-11-21T13:28:19;14.00;99.90
41922;DHT22;27609;51.002;5.354;2023-11-21T13:30:47;13.60;99.90
41922;DHT22;27609;51.002;5.354;2023-11-21T13:33:13;13.60;99.90
41922;DHT22;27609;51.002;5.354;2023-11-21T13:35:44;13.60;99.90
41922;DHT22;27609;51.002;5.354;2023-11-21T13:38:15;13.60;99.90
41922;DHT22;27609;51.002;5.354;2023-11-21T13:40:52;13.40;99.90
41922;DHT22;27609;51.002;5.354;2023-11-21T13:43:21;13.40;99.90
41922;DHT22;27609;51.002;5.354;2023-11-21T13:45:48;13.40;99.90
41922;DHT22;27609;51.002;5.354;2023-11-21T13:48:26;13.40;99.90
41922;DHT22;27609;51.002;5.354;2023-11-21T13:51:11;13.10;99.90
41922;DHT22;27609;51.002;5.354;2023-11-21T13:53:47;13.10;99.90
41922;DHT22;27609;51.002;5.354;2023-11-21T13:56:15;13.10;99.90
41922;DHT22;27609;51.002;5.354;2023-11-21T13:58:49;13.10;99.90
41922;DHT22;27609;51.002;5.354;2023-11-21T14:01:20;13.00;99.90
41922;DHT22;27609;51.002;5.354;2023-11-21T14:03:58;13.00;99.90
41922;DHT22;27609;51.002;5.354;2023-11-21T14:06:46;12.90;99.90
41922;DHT22;27609;51.002;5.354;2023-11-21T14:09:22;13.10;99.90
41922;DHT22;27609;51.002;5.354;2023-11-21T14:11:54;13.00;99.90
41922;DHT22;27609;51.002;5.354;2023-11-21T14:14:22;13.20;99.90
41922;DHT22;27609;51.002;5.354;2023-11-21T14:16:50;13.10;99.90
41922;DHT22;27609;51.002;5.354;2023-11-21T14:19:16;13.00;99.90
41922;DHT22;27609;51.002;5.354;2023-11-21T14:21:43;13.00;99.90
41922;DHT22;27609;51.002;5.354;2023-11-21T14:24:10;13.20;99.90
41922;DHT22;27609;51.002;5.354;2023-11-21T14:26:39;13.10;99.90
41922;DHT22;27609;51.002;5.354;2023-11-21T14:29:05;13.00;99.90
41922;DHT22;27609;51.002;5.354;2023-11-21T14:31:31;13.00;99.90
41922;DHT22;27609;51.002;5.354;2023-11-21T14:33:57;13.00;99.90
41922;DHT22;27609;51.002;5.354;2023-11-21T14:36:23;13.10;99.90
41922;DHT22;27609;51.002;5.354;2023-11-21T14:38:49;13.10;99.90
41922;DHT22;27609;51.002;5.354;2023-11-21T14:41:15;13.20;99.90
41922;DHT22;27609;51.002;5.354;2023-11-21T14:43:41;13.30;99.90
41922;DHT22;27609;51.002;5.354;2023-11-21T14:46:08;13.40;99.90
41922;DHT22;27609;51.002;5.354;2023-11-21T14:48:35;13.30;99.90
41922;DHT22;27609;51.002;5.354;2023-11-21T14:51:09;13.30;99.90
41922;DHT22;27609;51.002;5.354;2023-11-21T14:53:54;13.10;99.90
41922;DHT22;27609;51.002;5.354;2023-11-21T14:56:23;13.00;99.90
41922;DHT22;27609;51.002;5.354;2023-11-21T14:58:56;13.00;99.90
41922;DHT22;27609;51.002;5.354;2023-11-21T15:01:23;12.90;99.90
41922;DHT22;27609;51.002;5.354;2023-11-21T15:04:05;12.80;99.90
41922;DHT22;27609;51.002;5.354;2023-11-21T15:06:31;12.90;99.90
41922;DHT22;27609;51.002;5.354;2023-11-21T15:08:57;12.90;99.90
41922;DHT22;27609;51.002;5.354;2023-11-21T15:11:32;12.90;99.90
41922;DHT22;27609;51.002;5.354;2023-11-21T15:13:59;12.80;99.90
41922;DHT22;27609;51.002;5.354;2023-11-21T15:16:25;12.60;99.90
41922;DHT22;27609;51.002;5.354;2023-11-21T15:18:52;12.30;99.90
41922;DHT22;27609;51.002;5.354;2023-11-21T15:21:21;12.40;99.90
41922;DHT22;27609;51.002;5.354;2023-11-21T15:23:50;12.60;99.90
41922;DHT22;27609;51.002;5.354;2023-11-21T15:26:16;12.30;99.90
41922;DHT22;27609;51.002;5.354;2023-11-21T15:28:42;12.30;99.90
41922;DHT22;27609;51.002;5.354;2023-11-21T15:31:08;12.20;99.90
41922;DHT22;27609;51.002;5.354;2023-11-21T15:33:34;12.30;99.90
41922;DHT22;27609;51.002;5.354;2023-11-21T15:36:04;12.30;99.90
41922;DHT22;27609;51.002;5.354;2023-11-21T15:38:30;12.20;99.90
41922;DHT22;27609;51.002;5.354;2023-11-21T15:40:56;12.10;99.90
41922;DHT22;27609;51.002;5.354;2023-11-21T15:43:24;12.00;99.90
41922;DHT22;27609;51.002;5.354;2023-11-21T15:45:50;12.00;99.90
41922;DHT22;27609;51.002;5.354;2023-11-21T15:48:15;11.80;99.90
41922;DHT22;27609;51.002;5.354;2023-11-21T15:50:42;11.80;99.90
41922;DHT22;27609;51.002;5.354;2023-11-21T15:53:07;11.60;99.90
41922;DHT22;27609;51.002;5.354;2023-11-21T15:55:33;11.60;99.90
41922;DHT22;27609;51.002;5.354;2023-11-21T15:58:01;11.50;99.90